createdAt,value
2022-10-28T00:00:23.394Z,0.88
2022-10-28T00:03:26.333Z,0.88
2022-10-28T00:06:29.166Z,0.85
2022-10-28T00:09:31.677Z,0.80
2022-10-28T00:12:34.407Z,0.90
2022-10-28T00:15:36.901Z,0.90
2022-10-28T00:18:39.704Z,0.90
2022-10-28T00:21:42.837Z,1.00
2022-10-28T00:24:45.670Z,1.10
2022-10-28T00:27:48.668Z,1.10
2022-10-28T00:30:51.864Z,0.90
2022-10-28T00:33:55.481Z,0.93
2022-10-28T00:36:58.335Z,1.13
2022-10-28T00:40:00.483Z,1.00
2022-10-28T00:43:03.444Z,0.88
2022-10-28T00:46:06.465Z,1.05
2022-10-28T00:49:08.589Z,0.90
2022-10-28T00:52:11.220Z,0.95
2022-10-28T00:55:14.145Z,0.77
2022-10-28T00:58:17.410Z,0.90
2022-10-28T01:01:21.228Z,1.17
2022-10-28T01:04:24.566Z,0.90
2022-10-28T01:07:27.674Z,1.10
2022-10-28T01:10:30.438Z,1.10
2022-10-28T01:13:33.295Z,1.10
2022-10-28T01:16:35.798Z,1.00
2022-10-28T01:19:38.639Z,1.10
2022-10-28T01:22:41.274Z,0.90
2022-10-28T01:25:43.972Z,1.15
2022-10-28T01:28:46.704Z,0.85
2022-10-28T01:31:49.289Z,1.38
2022-10-28T01:34:51.904Z,1.00
2022-10-28T01:37:55.106Z,0.88
2022-10-28T01:40:58.533Z,1.13
2022-10-28T01:44:01.832Z,1.10
2022-10-28T01:47:05.259Z,1.00
2022-10-28T01:50:07.608Z,1.00
2022-10-28T01:53:10.517Z,1.17
2022-10-28T01:56:13.272Z,0.98
2022-10-28T01:59:16.459Z,1.13
2022-10-28T02:02:19.125Z,0.90
2022-10-28T02:05:21.504Z,1.25
2022-10-28T02:08:23.602Z,1.10
2022-10-28T02:11:26.501Z,0.90
2022-10-28T02:14:29.625Z,1.00
2022-10-28T02:17:31.754Z,1.00
2022-10-28T02:20:34.429Z,1.10
2022-10-28T02:23:37.693Z,1.08
2022-10-28T02:26:41.014Z,1.20
2022-10-28T02:29:43.975Z,1.10
2022-10-28T02:32:47.138Z,1.10
2022-10-28T02:35:49.806Z,1.20
2022-10-28T02:38:52.864Z,1.10
2022-10-28T02:41:55.319Z,0.95
2022-10-28T02:44:57.407Z,0.98
2022-10-28T02:47:59.568Z,1.30
2022-10-28T02:51:02.391Z,1.20
2022-10-28T02:54:05.303Z,1.30
2022-10-28T02:57:07.822Z,1.08
2022-10-28T03:00:11.074Z,1.08
2022-10-28T03:03:13.191Z,1.20
2022-10-28T03:06:15.649Z,1.10
2022-10-28T03:09:18.559Z,1.10
2022-10-28T03:12:21.462Z,1.20
2022-10-28T03:15:23.865Z,1.20
2022-10-28T03:18:26.237Z,1.13
2022-10-28T03:21:28.842Z,1.40
2022-10-28T03:24:31.304Z,1.20
2022-10-28T03:27:33.753Z,1.08
2022-10-28T03:30:36.215Z,1.40
2022-10-28T03:33:39.032Z,1.13
2022-10-28T03:36:42.106Z,1.05
2022-10-28T03:39:45.191Z,1.20
2022-10-28T03:42:48.414Z,1.00
2022-10-28T03:45:51.128Z,1.30
2022-10-28T03:48:54.274Z,1.20
2022-10-28T03:51:57.370Z,1.20
2022-10-28T03:54:59.965Z,1.27
2022-10-28T03:58:02.844Z,1.25
2022-10-28T04:01:06.092Z,1.25
2022-10-28T04:04:08.550Z,1.10
2022-10-28T04:07:11.118Z,1.40
2022-10-28T04:10:13.667Z,1.40
2022-10-28T04:13:16.226Z,1.55
2022-10-28T04:16:18.538Z,1.20
2022-10-28T04:19:20.952Z,1.10
2022-10-28T04:22:23.495Z,1.10
2022-10-28T04:25:26.097Z,1.20
2022-10-28T04:28:28.374Z,1.17
2022-10-28T04:31:31.429Z,1.33
2022-10-28T04:34:34.165Z,1.10
2022-10-28T04:37:36.903Z,1.23
2022-10-28T04:40:39.255Z,1.25
2022-10-28T04:43:41.810Z,1.45
2022-10-28T04:46:44.358Z,1.35
2022-10-28T04:49:48.162Z,1.38
2022-10-28T04:52:50.857Z,1.15
2022-10-28T04:55:53.205Z,1.38
2022-10-28T04:58:55.772Z,1.30
2022-10-28T05:01:58.406Z,1.30
2022-10-28T05:05:00.572Z,1.13
2022-10-28T05:08:02.721Z,1.30
2022-10-28T05:11:05.155Z,1.30
2022-10-28T05:14:07.482Z,1.20
2022-10-28T05:17:10.399Z,1.38
2022-10-28T05:20:13.144Z,1.17
2022-10-28T05:23:15.872Z,1.40
2022-10-28T05:26:19.094Z,1.13
2022-10-28T05:29:22.206Z,1.30
2022-10-28T05:32:24.604Z,1.25
2022-10-28T05:35:27.534Z,1.20
2022-10-28T05:38:30.306Z,1.30
2022-10-28T05:41:38.533Z,1.27
2022-10-28T05:44:42.055Z,1.25
2022-10-28T05:47:44.920Z,1.20
2022-10-28T05:50:47.501Z,1.35
2022-10-28T05:53:49.597Z,1.20
2022-10-28T05:56:51.989Z,1.20
2022-10-28T05:59:54.886Z,1.40
2022-10-28T06:02:57.132Z,1.25
2022-10-28T06:05:59.789Z,1.35
2022-10-28T06:09:02.676Z,1.30
2022-10-28T06:12:03.493Z,1.50
2022-10-28T06:15:05.946Z,1.40
2022-10-28T06:18:08.343Z,1.38
2022-10-28T06:21:10.953Z,1.50
2022-10-28T06:24:13.818Z,1.25
2022-10-28T06:27:16.990Z,1.35
2022-10-28T06:30:19.385Z,1.30
2022-10-28T06:33:21.606Z,1.20
2022-10-28T06:36:24.161Z,1.60
2022-10-28T06:42:34.206Z,1.20
2022-10-28T06:45:37.250Z,1.30
2022-10-28T06:48:42.135Z,1.40
2022-10-28T06:51:44.511Z,1.33
2022-10-28T06:54:46.902Z,1.38
2022-10-28T06:57:49.788Z,1.25
2022-10-28T07:00:52.035Z,1.45
2022-10-28T07:03:54.699Z,1.40
2022-10-28T07:06:57.310Z,1.55
2022-10-28T07:09:59.955Z,1.50
2022-10-28T07:13:02.867Z,1.42
2022-10-28T07:16:05.744Z,1.30
2022-10-28T07:19:07.898Z,1.30
2022-10-28T07:22:10.527Z,1.33
2022-10-28T07:25:12.746Z,1.38
2022-10-28T07:28:15.335Z,1.45
2022-10-28T07:31:17.904Z,1.20
2022-10-28T07:34:25.862Z,1.23
2022-10-28T07:37:30.125Z,1.45
2022-10-28T07:40:32.536Z,1.63
2022-10-28T07:43:34.715Z,1.42
2022-10-28T07:46:37.540Z,1.35
2022-10-28T07:49:41.234Z,1.70
2022-10-28T07:52:44.857Z,1.38
2022-10-28T07:55:48.180Z,1.45
2022-10-28T07:58:51.004Z,1.55
2022-10-28T08:01:54.310Z,1.40
2022-10-28T08:04:57.730Z,1.55
2022-10-28T08:08:00.226Z,1.60
2022-10-28T08:11:02.502Z,1.58
2022-10-28T08:14:05.200Z,1.63
2022-10-28T08:17:07.763Z,1.83
2022-10-28T08:20:10.389Z,1.38
2022-10-28T08:23:12.511Z,1.80
2022-10-28T08:26:15.500Z,1.60
2022-10-28T08:29:18.545Z,1.27
2022-10-28T08:32:21.104Z,1.48
2022-10-28T08:35:24.075Z,1.70
2022-10-28T08:38:26.876Z,1.70
2022-10-28T08:41:29.563Z,1.40
2022-10-28T08:44:31.704Z,1.70
2022-10-28T08:47:34.671Z,1.60
2022-10-28T08:50:37.048Z,1.48
2022-10-28T08:53:39.975Z,1.70
2022-10-28T08:56:43.044Z,1.83
2022-10-28T08:59:45.643Z,1.63
2022-10-28T09:02:48.127Z,1.55
2022-10-28T09:05:51.116Z,1.73
2022-10-28T09:08:54.520Z,1.73
2022-10-28T09:11:57.374Z,1.50
2022-10-28T09:15:00.046Z,1.55
2022-10-28T09:18:02.783Z,1.63
2022-10-28T09:21:05.379Z,1.90
2022-10-28T09:24:08.394Z,1.58
2022-10-28T09:27:11.120Z,1.90
2022-10-28T09:30:13.504Z,1.83
2022-10-28T09:33:15.407Z,1.90
2022-10-28T09:36:18.378Z,1.70
2022-10-28T09:39:25.322Z,1.70
2022-10-28T09:42:31.561Z,1.65
2022-10-28T09:45:34.362Z,1.67
2022-10-28T09:48:37.051Z,1.90
2022-10-28T09:51:39.500Z,1.50
2022-10-28T09:54:42.664Z,1.60
2022-10-28T09:57:45.444Z,1.73
2022-10-28T10:00:48.055Z,2.00
2022-10-28T10:03:50.232Z,1.73
2022-10-28T10:06:52.839Z,1.88
2022-10-28T10:09:55.823Z,1.77
2022-10-28T10:12:59.083Z,1.60
2022-10-28T10:16:01.934Z,1.77
2022-10-28T10:19:04.123Z,2.00
2022-10-28T10:22:06.987Z,2.03
2022-10-28T10:25:10.141Z,1.90
2022-10-28T10:28:12.831Z,1.60
2022-10-28T10:31:15.975Z,2.15
2022-10-28T10:34:18.857Z,1.83
2022-10-28T10:37:21.728Z,1.80
2022-10-28T10:40:24.415Z,2.05
2022-10-28T10:43:27.691Z,2.00
2022-10-28T10:46:30.529Z,2.10
2022-10-28T10:49:32.612Z,1.80
2022-10-28T10:52:35.059Z,1.90
2022-10-28T10:55:38.244Z,1.98
2022-10-28T10:58:40.774Z,1.73
2022-10-28T11:01:44.739Z,1.75
2022-10-28T11:04:47.666Z,1.83
2022-10-28T11:07:50.336Z,1.90
2022-10-28T11:10:53.256Z,1.85
2022-10-28T11:13:55.970Z,2.20
2022-10-28T11:16:58.863Z,1.92
2022-10-28T11:20:02.112Z,1.80
2022-10-28T11:23:05.760Z,1.70
2022-10-28T11:26:09.454Z,1.90
2022-10-28T11:29:11.605Z,2.10
2022-10-28T11:32:13.812Z,2.10
2022-10-28T11:35:16.399Z,1.70
2022-10-28T11:38:19.370Z,2.30
2022-10-28T11:41:22.178Z,2.65
2022-10-28T11:44:25.017Z,3.17
2022-10-28T11:47:27.149Z,3.33
2022-10-28T11:50:29.263Z,3.45
2022-10-28T11:53:31.904Z,2.78
2022-10-28T11:56:33.993Z,3.22
2022-10-28T11:59:36.649Z,3.38
2022-10-28T12:02:39.475Z,3.45
2022-10-28T12:05:42.369Z,3.60
2022-10-28T12:08:44.834Z,2.88
2022-10-28T12:11:47.713Z,3.38
2022-10-28T12:14:49.949Z,3.60
2022-10-28T12:17:52.707Z,3.92
2022-10-28T12:20:55.734Z,3.50
2022-10-28T12:23:58.455Z,3.20
2022-10-28T12:27:00.619Z,3.53
2022-10-28T12:30:03.343Z,3.50
2022-10-28T12:33:05.798Z,3.72
2022-10-28T12:36:07.893Z,3.67
2022-10-28T12:39:10.723Z,3.58
2022-10-28T12:42:13.860Z,3.65
2022-10-28T12:45:16.643Z,4.43
2022-10-28T12:48:19.178Z,4.47
2022-10-28T12:51:22.087Z,4.45
2022-10-28T12:54:24.727Z,4.20
2022-10-28T12:57:27.361Z,4.15
2022-10-28T13:00:29.458Z,4.00
2022-10-28T13:03:31.603Z,4.28
2022-10-28T13:06:34.225Z,4.00
2022-10-28T13:09:39.045Z,4.40
2022-10-28T13:12:42.188Z,3.75
2022-10-28T13:15:44.688Z,4.20
2022-10-28T13:18:47.508Z,7.35
2022-10-28T13:21:50.735Z,4.40
2022-10-28T13:24:53.557Z,4.07
2022-10-28T13:27:56.797Z,4.32
2022-10-28T13:31:00.080Z,4.30
2022-10-28T13:34:02.495Z,4.72
2022-10-28T13:37:05.417Z,4.60
2022-10-28T13:40:07.778Z,4.32
2022-10-28T13:43:10.310Z,4.13
2022-10-28T13:46:12.912Z,4.22
2022-10-28T13:49:15.752Z,4.60
2022-10-28T13:52:18.726Z,4.57
2022-10-28T13:55:22.026Z,4.28
2022-10-28T13:58:24.935Z,4.35
2022-10-28T14:01:27.623Z,4.25
2022-10-28T14:04:30.883Z,4.30
2022-10-28T14:07:33.282Z,4.80
2022-10-28T14:10:35.850Z,4.00
2022-10-28T14:13:38.563Z,4.40
2022-10-28T14:16:41.486Z,4.50
2022-10-28T14:19:44.324Z,4.28
2022-10-28T14:22:47.268Z,4.10
2022-10-28T14:25:50.569Z,4.20
2022-10-28T14:28:53.196Z,4.18
2022-10-28T14:31:55.856Z,3.92
2022-10-28T14:34:58.515Z,4.25
2022-10-28T14:38:00.644Z,3.85
2022-10-28T14:41:03.324Z,4.30
2022-10-28T14:44:05.945Z,4.25
2022-10-28T14:47:08.572Z,4.50
2022-10-28T14:50:10.767Z,4.15
2022-10-28T14:53:13.323Z,4.00
2022-10-28T14:56:16.022Z,4.53
2022-10-28T14:59:18.513Z,4.10
2022-10-28T15:02:21.204Z,4.72
2022-10-28T15:05:23.847Z,4.22
2022-10-28T15:08:27.090Z,4.13
2022-10-28T15:11:29.457Z,4.13
2022-10-28T15:14:31.970Z,3.95
2022-10-28T15:17:34.508Z,3.95
2022-10-28T15:20:36.732Z,3.97
2022-10-28T15:23:38.876Z,3.90
2022-10-28T15:26:41.082Z,3.88
2022-10-28T15:29:43.230Z,3.50
2022-10-28T15:32:45.812Z,3.88
2022-10-28T15:35:48.332Z,3.72
2022-10-28T15:38:50.942Z,3.65
2022-10-28T15:41:53.872Z,3.90
2022-10-28T15:44:56.659Z,3.55
2022-10-28T15:47:59.357Z,3.70
2022-10-28T15:51:02.097Z,3.45
2022-10-28T15:54:04.338Z,4.00
2022-10-28T15:57:06.926Z,3.53
2022-10-28T16:00:09.466Z,3.10
2022-10-28T16:03:11.912Z,3.50
2022-10-28T16:06:14.806Z,3.22
2022-10-28T16:09:17.800Z,3.67
2022-10-28T16:12:20.843Z,3.40
2022-10-28T16:15:23.440Z,3.63
2022-10-28T16:18:26.392Z,3.50
2022-10-28T16:21:29.254Z,3.83
2022-10-28T16:24:32.062Z,3.38
2022-10-28T16:27:35.008Z,3.28
2022-10-28T16:30:37.777Z,3.22
2022-10-28T16:33:40.270Z,3.45
2022-10-28T16:36:42.729Z,3.40
2022-10-28T16:39:46.049Z,3.40
2022-10-28T16:42:49.864Z,3.28
2022-10-28T16:45:53.021Z,3.30
2022-10-28T16:48:55.853Z,3.35
2022-10-28T16:51:58.855Z,2.75
2022-10-28T16:55:02.051Z,3.28
2022-10-28T16:58:04.707Z,3.47
2022-10-28T17:01:07.604Z,3.50
2022-10-28T17:04:10.673Z,3.35
2022-10-28T17:07:13.512Z,3.20
2022-10-28T17:10:16.151Z,3.40
2022-10-28T17:13:18.723Z,3.58
2022-10-28T17:16:21.522Z,3.60
2022-10-28T17:19:23.934Z,3.25
2022-10-28T17:22:26.521Z,3.28
2022-10-28T17:25:28.835Z,3.17
2022-10-28T17:28:31.735Z,3.45
2022-10-28T17:31:34.668Z,3.03
2022-10-28T17:34:37.063Z,2.92
2022-10-28T17:37:39.912Z,3.13
2022-10-28T17:40:42.670Z,3.08
2022-10-28T17:43:45.550Z,3.20
2022-10-28T17:46:48.470Z,3.00
2022-10-28T17:49:51.294Z,3.42
2022-10-28T17:52:53.845Z,2.95
2022-10-28T17:55:57.033Z,2.97
2022-10-28T17:58:59.962Z,3.47
2022-10-28T18:02:02.709Z,3.03
2022-10-28T18:05:05.280Z,2.65
2022-10-28T18:08:07.929Z,3.28
2022-10-28T18:11:10.473Z,2.85
2022-10-28T18:14:13.210Z,2.70
2022-10-28T18:17:15.654Z,2.92
2022-10-28T18:20:18.895Z,3.20
2022-10-28T18:23:21.493Z,3.00
2022-10-28T18:26:24.484Z,2.80
2022-10-28T18:29:27.414Z,2.67
2022-10-28T18:32:29.764Z,3.15
2022-10-28T18:35:32.358Z,2.85
2022-10-28T18:38:34.606Z,3.10
2022-10-28T18:41:37.063Z,2.67
2022-10-28T18:44:40.361Z,3.00
2022-10-28T18:47:43.141Z,2.92
2022-10-28T18:50:48.460Z,2.70
2022-10-28T18:53:52.134Z,2.60
2022-10-28T18:56:57.550Z,2.88
2022-10-28T19:03:22.205Z,2.85
2022-10-28T19:06:25.165Z,2.78
2022-10-28T19:09:28.097Z,2.78
2022-10-28T19:12:30.631Z,2.72
2022-10-28T19:15:32.744Z,2.80
2022-10-28T19:18:35.012Z,3.00
2022-10-28T19:21:38.100Z,2.42
2022-10-28T19:24:41.799Z,2.70
2022-10-28T19:27:44.154Z,2.88
2022-10-28T19:30:46.382Z,2.58
2022-10-28T19:33:48.923Z,2.90
2022-10-28T19:36:51.804Z,2.78
2022-10-28T19:39:56.581Z,2.63
2022-10-28T19:42:59.657Z,2.70
2022-10-28T19:46:02.480Z,2.90
2022-10-28T19:49:05.427Z,2.90
2022-10-28T19:52:08.614Z,2.72
2022-10-28T19:55:14.839Z,3.00
2022-10-28T19:58:17.887Z,2.90
2022-10-28T20:01:21.602Z,2.60
2022-10-28T20:04:24.508Z,3.10
2022-10-28T20:07:27.687Z,3.00
2022-10-28T20:10:30.493Z,2.90
2022-10-28T20:13:33.007Z,2.50
2022-10-28T20:16:36.093Z,3.10
2022-10-28T20:19:39.952Z,2.70
2022-10-28T20:22:42.821Z,2.80
2022-10-28T20:25:44.979Z,2.75
2022-10-28T20:28:47.600Z,3.00
2022-10-28T20:31:50.298Z,2.90
2022-10-28T20:34:53.159Z,2.72
2022-10-28T20:37:55.800Z,2.50
2022-10-28T20:40:58.324Z,2.95
2022-10-28T20:44:00.617Z,2.60
2022-10-28T20:47:03.856Z,2.50
2022-10-28T20:50:06.360Z,2.63
2022-10-28T20:53:08.580Z,2.63
2022-10-28T20:56:11.122Z,2.42
2022-10-28T20:59:13.946Z,2.70
2022-10-28T21:02:17.019Z,2.67
2022-10-28T21:05:20.371Z,2.40
2022-10-28T21:08:23.223Z,2.40
2022-10-28T21:11:25.340Z,2.53
2022-10-28T21:14:27.544Z,2.42
2022-10-28T21:17:30.550Z,2.55
2022-10-28T21:20:33.380Z,2.53
2022-10-28T21:23:36.040Z,2.45
2022-10-28T21:26:38.793Z,2.55
2022-10-28T21:29:41.529Z,2.47
2022-10-28T21:32:44.477Z,2.65
2022-10-28T21:35:47.418Z,2.50
2022-10-28T21:38:49.808Z,2.42
2022-10-28T21:41:52.308Z,2.65
2022-10-28T21:44:55.491Z,2.30
2022-10-28T21:47:58.786Z,2.33
2022-10-28T21:51:02.112Z,2.55
2022-10-28T21:54:05.429Z,2.22
2022-10-28T21:57:08.042Z,2.25
2022-10-28T22:00:11.056Z,2.45
2022-10-28T22:03:17.316Z,2.78
2022-10-28T22:06:20.077Z,2.45
2022-10-28T22:09:23.332Z,2.58
2022-10-28T22:12:27.090Z,2.13
2022-10-28T22:15:30.076Z,2.35
2022-10-28T22:18:32.691Z,2.17
2022-10-28T22:21:34.785Z,2.42
2022-10-28T22:24:37.435Z,2.30
2022-10-28T22:27:39.612Z,2.40
2022-10-28T22:30:42.179Z,2.45
2022-10-28T22:36:47.424Z,2.70
2022-10-28T22:39:50.318Z,2.30
2022-10-28T22:42:53.165Z,2.50
2022-10-28T22:45:55.348Z,2.30
2022-10-28T22:48:58.405Z,2.30
2022-10-28T22:52:00.749Z,2.13
2022-10-28T22:55:02.919Z,2.40
2022-10-28T22:58:05.190Z,2.28
2022-10-28T23:01:07.809Z,2.50
2022-10-28T23:04:10.696Z,2.50
2022-10-28T23:07:13.623Z,2.08
2022-10-28T23:10:16.275Z,2.20
2022-10-28T23:13:18.786Z,2.20
2022-10-28T23:16:21.891Z,2.15
2022-10-28T23:19:24.796Z,2.30
2022-10-28T23:22:27.377Z,2.25
2022-10-28T23:25:29.550Z,2.40
2022-10-28T23:28:32.083Z,2.22
2022-10-28T23:31:34.216Z,2.33
2022-10-28T23:34:36.822Z,2.38
2022-10-28T23:37:38.850Z,2.20
2022-10-28T23:40:41.903Z,2.33
2022-10-28T23:43:44.728Z,2.45
2022-10-28T23:46:47.136Z,2.35
2022-10-28T23:49:49.396Z,2.30
2022-10-28T23:52:52.067Z,2.22
2022-10-28T23:55:54.686Z,2.10
2022-10-28T23:58:57.625Z,2.33
